Time;durP1;ratioP1;P1;durP2;ratioP2;P2;SDS_P1;SDS_P2;PMS_P1;PMS_P2;Temp;Humidity;BMP_temperature;BMP_pressure;BME280_temperature;BME280_humidity;BME280_pressure;Samples;Min_cycle;Max_cycle;Signal;HPM_P1;HPM_P2
2022/04/30 00:02:20;;;;;;;8.57;6.05;;;22.80;99.90;;;;;;5134444;27;20015;-55
2022/04/30 00:04:47;;;;;;;8.43;5.97;;;22.80;99.90;;;;;;5127756;27;20020;-55
2022/04/30 00:07:17;;;;;;;;;;;22.80;99.90;;;;;;5118253;27;20530;-56
2022/04/30 00:09:47;;;;;;;6.90;5.85;;;22.80;99.90;;;;;;5113341;28;20289;-54
2022/04/30 00:12:15;;;;;;;9.18;6.57;;;22.80;99.90;;;;;;5113794;28;20502;-53
2022/04/30 00:14:40;;;;;;;;;;;22.80;99.90;;;;;;5119870;27;20484;-55
2022/04/30 00:17:06;;;;;;;10.63;6.18;;;22.80;99.90;;;;;;5131558;27;19953;-54
2022/04/30 00:19:33;;;;;;;9.95;5.72;;;22.70;99.90;;;;;;5134740;27;20026;-55
2022/04/30 00:21:59;;;;;;;9.07;6.68;;;22.70;99.90;;;;;;5134823;27;20027;-54
2022/04/30 00:24:26;;;;;;;9.30;6.50;;;22.80;99.90;;;;;;5134314;27;20035;-55
2022/04/30 00:26:53;;;;;;;11.40;6.47;;;22.70;99.90;;;;;;5134940;27;20076;-57
2022/04/30 00:29:18;;;;;;;9.85;5.93;;;22.80;99.90;;;;;;5134689;27;20019;-55
2022/04/30 00:31:45;;;;;;;10.02;6.53;;;22.70;99.90;;;;;;5134268;27;20039;-53
2022/04/30 00:34:11;;;;;;;8.35;5.90;;;22.80;99.90;;;;;;5134713;27;20054;-54
2022/04/30 00:36:37;;;;;;;7.93;5.85;;;22.70;99.90;;;;;;5116370;27;20091;-54
2022/04/30 00:39:03;;;;;;;9.05;6.28;;;22.70;99.90;;;;;;5134118;27;20458;-56
2022/04/30 00:41:32;;;;;;;7.63;5.60;;;22.70;99.90;;;;;;5134489;27;20060;-57
2022/04/30 00:43:59;;;;;;;7.03;5.70;;;22.70;99.90;;;;;;5134446;27;20049;-58
2022/04/30 00:46:25;;;;;;;7.63;5.50;;;22.70;99.90;;;;;;5133668;27;20023;-57
2022/04/30 00:49:10;;;;;;;7.10;5.07;;;22.70;99.90;;;;;;5132878;27;20432;-56
2022/04/30 00:51:38;;;;;;;8.90;5.82;;;22.70;99.90;;;;;;5134062;27;20057;-57
2022/04/30 00:54:06;;;;;;;7.53;5.50;;;22.70;99.90;;;;;;5133928;27;20019;-59
2022/04/30 00:56:43;;;;;;;;;;;22.70;99.90;;;;;;5126044;27;20102;-60
2022/04/30 00:59:09;;;;;;;;;;;22.70;99.90;;;;;;5145543;22;20281;-40
2022/04/30 01:01:36;;;;;;;7.50;6.07;;;22.70;99.90;;;;;;5050956;28;20284;-42
2022/04/30 01:04:03;;;;;;;7.68;5.47;;;22.70;99.90;;;;;;5052621;28;20425;-42
2022/04/30 01:06:52;;;;;;;6.22;5.40;;;22.70;99.90;;;;;;5052884;28;20423;-42
2022/04/30 01:09:22;;;;;;;9.63;5.95;;;22.70;99.90;;;;;;5052381;28;20025;-41
2022/04/30 01:12:00;;;;;;;8.85;5.45;;;22.60;99.90;;;;;;5052578;28;20392;-43
2022/04/30 01:14:34;;;;;;;8.05;5.03;;;22.60;99.90;;;;;;5052923;28;20029;-42
2022/04/30 01:17:06;;;;;;;7.55;4.78;;;22.60;99.90;;;;;;5051543;28;20028;-42
2022/04/30 01:19:37;;;;;;;8.85;5.72;;;22.70;99.90;;;;;;5052541;28;20020;-41
2022/04/30 01:22:27;;;;;;;10.70;5.35;;;22.60;99.90;;;;;;5051627;28;20021;-43
2022/04/30 01:24:56;;;;;;;5.43;4.80;;;22.70;99.90;;;;;;5032325;28;20039;-42
2022/04/30 01:27:26;;;;;;;6.38;4.85;;;22.70;99.90;;;;;;5052439;28;20028;-41
2022/04/30 01:29:53;;;;;;;9.25;5.25;;;22.60;99.90;;;;;;5051284;28;20124;-41
2022/04/30 01:38:01;;;;;;;6.68;5.18;;;22.60;99.90;;;;;;5052130;28;20087;-42
2022/04/30 01:40:29;;;;;;;7.53;5.28;;;22.60;99.90;;;;;;5034548;28;20420;-41
2022/04/30 01:42:58;;;;;;;;;;;22.60;99.90;;;;;;5034145;28;20056;-41
2022/04/30 01:45:25;;;;;;;7.28;5.07;;;22.60;99.90;;;;;;5051962;28;19904;-41
2022/04/30 01:47:54;;;;;;;6.53;5.07;;;22.60;99.90;;;;;;5051760;28;20465;-41
2022/04/30 01:50:21;;;;;;;5.93;4.78;;;22.60;99.90;;;;;;5051904;28;20601;-41
2022/04/30 01:52:47;;;;;;;6.63;5.03;;;22.60;99.90;;;;;;5051850;28;20033;-41
2022/04/30 01:55:13;;;;;;;7.53;5.05;;;22.60;99.90;;;;;;5051942;28;20590;-41
2022/04/30 01:57:40;;;;;;;9.30;5.57;;;22.60;99.90;;;;;;5051959;28;20029;-42
2022/04/30 02:00:08;;;;;;;5.85;5.10;;;22.60;99.90;;;;;;5062663;22;20064;-51
2022/04/30 02:02:35;;;;;;;6.57;5.10;;;22.60;99.90;;;;;;5051542;28;20359;-52
2022/04/30 02:05:07;;;;;;;8.70;5.05;;;22.60;99.90;;;;;;5051687;28;20480;-50
2022/04/30 02:07:39;;;;;;;6.75;5.30;;;22.50;99.90;;;;;;5051850;28;20473;-49
2022/04/30 02:10:08;;;;;;;8.45;5.18;;;22.50;99.90;;;;;;5051414;28;20120;-52
2022/04/30 02:12:34;;;;;;;6.25;5.20;;;22.50;99.90;;;;;;5051688;28;20373;-50
2022/04/30 02:15:00;;;;;;;8.85;5.47;;;22.50;99.90;;;;;;5050730;28;20121;-50
2022/04/30 02:17:28;;;;;;;7.88;5.20;;;22.50;99.90;;;;;;5050617;28;20025;-50
2022/04/30 02:22:41;;;;;;;6.72;4.68;;;22.50;99.90;;;;;;5043046;28;20384;-50
2022/04/30 02:25:26;;;;;;;6.53;5.50;;;22.40;99.90;;;;;;5051413;28;20099;-51
2022/04/30 02:28:04;;;;;;;6.53;4.68;;;22.40;99.90;;;;;;5050385;28;20037;-50
2022/04/30 02:30:31;;;;;;;;;;;22.40;99.90;;;;;;5051760;28;20090;-51
2022/04/30 02:33:01;;;;;;;6.75;4.75;;;22.40;99.90;;;;;;5049782;28;19913;-51
2022/04/30 02:35:29;;;;;;;7.20;5.70;;;22.40;99.90;;;;;;5050843;28;20037;-56
2022/04/30 02:37:58;;;;;;;6.32;5.13;;;22.30;99.90;;;;;;5049943;28;20075;-51
2022/04/30 02:40:26;;;;;;;6.97;5.22;;;22.30;99.90;;;;;;5047815;28;20120;-51
2022/04/30 02:42:53;;;;;;;8.85;5.22;;;22.30;99.90;;;;;;5051095;28;20093;-51
2022/04/30 02:45:20;;;;;;;5.88;4.85;;;22.30;99.90;;;;;;5051252;28;20075;-52
2022/04/30 02:47:55;;;;;;;8.10;5.50;;;22.30;99.90;;;;;;5051332;28;20029;-51
2022/04/30 02:50:24;;;;;;;8.13;5.28;;;22.30;99.90;;;;;;5051006;28;20041;-51
2022/04/30 02:52:51;;;;;;;7.85;4.68;;;22.30;99.90;;;;;;5049334;28;20039;-51
2022/04/30 02:55:17;;;;;;;6.57;5.20;;;22.30;99.90;;;;;;5048975;28;20393;-50
2022/04/30 03:00:42;;;;;;;7.43;4.68;;;22.30;99.90;;;;;;5063238;22;20574;-56
2022/04/30 03:03:13;;;;;;;8.05;5.40;;;22.30;99.90;;;;;;5047246;28;20370;-55
2022/04/30 03:05:42;;;;;;;7.18;5.10;;;22.20;99.90;;;;;;5049312;28;20025;-55
2022/04/30 03:08:13;;;;;;;6.65;5.20;;;22.20;99.90;;;;;;5050754;28;20055;-55
2022/04/30 03:11:03;;;;;;;7.88;5.45;;;22.20;99.90;;;;;;5051049;28;20036;-55
2022/04/30 03:13:30;;;;;;;8.85;6.40;;;22.20;99.90;;;;;;5054554;28;20082;-54
2022/04/30 03:21:41;;;;;;;6.53;5.43;;;22.20;99.90;;;;;;5054979;28;20029;-54
2022/04/30 03:21:44;;;;;;;7.60;6.18;;;22.10;99.90;;;;;;5054790;28;20079;-54
2022/04/30 03:24:11;;;;;;;8.20;5.95;;;22.10;99.90;;;;;;5054849;28;20040;-54
2022/04/30 03:26:37;;;;;;;;;;;22.10;99.90;;;;;;5055274;28;20025;-54
2022/04/30 03:29:04;;;;;;;6.25;4.90;;;22.10;99.90;;;;;;5054656;28;20265;-56
2022/04/30 03:31:30;;;;;;;8.32;5.43;;;22.10;99.90;;;;;;5054565;28;20041;-56
2022/04/30 03:33:56;;;;;;;8.60;6.28;;;22.10;99.90;;;;;;5054694;28;20116;-56
2022/04/30 03:36:23;;;;;;;7.88;5.53;;;22.10;99.90;;;;;;5054668;28;20040;-57
2022/04/30 03:38:49;;;;;;;9.15;6.07;;;22.10;99.90;;;;;;5054647;28;20021;-55
2022/04/30 03:41:17;;;;;;;8.05;5.70;;;22.00;99.90;;;;;;5054668;28;20017;-56
2022/04/30 03:43:43;;;;;;;8.55;6.47;;;22.00;99.90;;;;;;5054355;28;20049;-56
2022/04/30 03:46:09;;;;;;;8.75;5.78;;;22.00;99.90;;;;;;5054352;28;20035;-56
2022/04/30 03:48:35;;;;;;;7.80;5.80;;;22.00;99.90;;;;;;5054458;28;20104;-56
2022/04/30 03:51:01;;;;;;;9.27;6.38;;;22.00;99.90;;;;;;5054337;28;20468;-55
2022/04/30 03:53:27;;;;;;;8.88;6.18;;;22.00;99.90;;;;;;5054244;28;20025;-55
2022/04/30 03:55:53;;;;;;;7.32;5.82;;;22.00;99.90;;;;;;5054339;28;20064;-55
2022/04/30 03:58:19;;;;;;;7.43;5.75;;;22.00;99.90;;;;;;5054318;28;20040;-55
2022/04/30 04:00:48;;;;;;;8.55;6.10;;;22.00;99.90;;;;;;5067461;22;20053;-40
2022/04/30 04:03:14;;;;;;;10.15;5.72;;;22.00;99.90;;;;;;5054218;28;20033;-41
2022/04/30 04:05:40;;;;;;;7.75;6.25;;;22.00;99.90;;;;;;5054170;28;20023;-40
2022/04/30 04:08:11;;;;;;;9.13;6.35;;;22.00;99.90;;;;;;5053998;28;20079;-42
2022/04/30 04:10:38;;;;;;;9.73;6.13;;;22.00;99.90;;;;;;5053932;28;20033;-40
2022/04/30 04:18:32;;;;;;;6.85;5.43;;;21.90;99.90;;;;;;5052993;28;20040;-40
2022/04/30 04:20:58;;;;;;;9.10;5.75;;;21.90;99.90;;;;;;5053632;28;20024;-40
2022/04/30 04:23:24;;;;;;;9.30;6.78;;;21.90;99.90;;;;;;5053187;28;20025;-40
2022/04/30 04:25:59;;;;;;;10.25;7.32;;;21.90;99.90;;;;;;5052704;28;20029;-40
2022/04/30 04:28:28;;;;;;;8.73;7.03;;;21.90;99.90;;;;;;5053470;28;20074;-40
2022/04/30 04:30:54;;;;;;;8.40;6.10;;;21.90;99.90;;;;;;5053403;28;20108;-40
2022/04/30 04:33:20;;;;;;;8.00;6.68;;;21.90;99.90;;;;;;5053650;28;20025;-39
2022/04/30 04:35:46;;;;;;;9.82;6.80;;;21.90;99.90;;;;;;5053484;28;20435;-41
2022/04/30 04:38:12;;;;;;;10.07;6.95;;;21.80;99.90;;;;;;5052067;28;20475;-39
2022/04/30 04:40:37;;;;;;;8.02;5.63;;;21.80;99.90;;;;;;5053435;28;20021;-39
2022/04/30 04:43:03;;;;;;;9.32;5.97;;;21.80;99.90;;;;;;5053350;28;20048;-38
2022/04/30 04:45:29;;;;;;;7.78;5.95;;;21.80;99.90;;;;;;5051845;28;20029;-39
2022/04/30 04:47:56;;;;;;;9.02;6.82;;;21.80;99.90;;;;;;5053202;28;20055;-39
2022/04/30 04:50:25;;;;;;;9.35;6.28;;;21.80;99.90;;;;;;5053335;28;20037;-38
2022/04/30 04:52:53;;;;;;;7.72;5.95;;;21.80;99.90;;;;;;5052035;28;20472;-39
2022/04/30 04:55:19;;;;;;;7.80;6.22;;;21.80;99.90;;;;;;5053316;28;20100;-39
2022/04/30 04:57:45;;;;;;;9.63;6.50;;;21.80;99.90;;;;;;5052953;28;20164;-39
2022/04/30 05:00:11;;;;;;;7.90;6.20;;;21.80;99.90;;;;;;5052624;28;20086;-39
2022/04/30 05:02:37;;;;;;;8.18;6.00;;;21.80;99.90;;;;;;5052982;28;20025;-40
2022/04/30 05:05:03;;;;;;;7.88;6.43;;;21.80;99.90;;;;;;5052931;28;20425;-40
2022/04/30 05:07:29;;;;;;;6.15;5.35;;;21.80;99.90;;;;;;5053153;28;20032;-40
2022/04/30 05:09:55;;;;;;;7.60;6.10;;;21.80;99.90;;;;;;5052798;28;20029;-39
2022/04/30 05:12:21;;;;;;;7.85;6.10;;;21.80;99.90;;;;;;5052904;28;20104;-39
2022/04/30 05:14:48;;;;;;;7.15;6.28;;;21.80;99.90;;;;;;5052584;28;20115;-40
2022/04/30 05:17:14;;;;;;;8.95;6.50;;;21.80;99.90;;;;;;5052712;28;20098;-40
2022/04/30 05:19:40;;;;;;;7.63;6.28;;;21.80;99.90;;;;;;5052643;28;20492;-40
2022/04/30 05:22:06;;;;;;;8.00;6.03;;;21.80;99.90;;;;;;5051432;28;20033;-40
2022/04/30 05:24:32;;;;;;;7.53;5.68;;;21.80;99.90;;;;;;5052632;28;20021;-40
2022/04/30 05:26:58;;;;;;;9.68;6.40;;;21.80;99.90;;;;;;5052395;28;20032;-41
2022/04/30 05:29:24;;;;;;;8.07;6.25;;;21.70;99.90;;;;;;5052704;28;20163;-40
2022/04/30 05:31:50;;;;;;;8.77;6.55;;;21.70;99.90;;;;;;5052352;28;20123;-39
2022/04/30 05:34:15;;;;;;;9.70;6.38;;;21.70;99.90;;;;;;5050254;28;20021;-39
2022/04/30 05:36:41;;;;;;;7.97;6.20;;;21.70;99.90;;;;;;5052371;28;20127;-39
2022/04/30 05:39:07;;;;;;;8.02;6.20;;;21.70;99.90;;;;;;5052161;28;20027;-39
2022/04/30 05:41:33;;;;;;;8.27;6.32;;;21.70;99.90;;;;;;5052195;28;20032;-39
2022/04/30 05:43:59;;;;;;;12.77;7.13;;;21.70;99.90;;;;;;5052168;28;20559;-40
2022/04/30 05:46:24;;;;;;;8.30;6.25;;;21.70;99.90;;;;;;5052411;28;20380;-40
2022/04/30 05:48:50;;;;;;;8.15;6.82;;;21.70;99.90;;;;;;5052143;28;20025;-39
2022/04/30 05:51:16;;;;;;;8.32;6.25;;;21.70;99.90;;;;;;5051942;28;20098;-39
2022/04/30 05:53:42;;;;;;;8.05;6.45;;;21.70;99.90;;;;;;5052100;28;20024;-40
2022/04/30 05:56:08;;;;;;;8.25;6.18;;;21.70;99.90;;;;;;5052050;28;20388;-41
2022/04/30 06:01:18;;;;;;;9.02;6.40;;;21.70;99.90;;;;;;5051739;28;20099;-40
2022/04/30 06:03:44;;;;;;;6.97;6.00;;;21.70;99.90;;;;;;5051878;28;20021;-40
2022/04/30 06:06:29;;;;;;;8.20;6.05;;;21.80;99.90;;;;;;5051841;28;20028;-40
2022/04/30 06:08:56;;;;;;;8.02;6.32;;;21.70;99.90;;;;;;5051949;28;20013;-40
2022/04/30 06:11:21;;;;;;;9.73;6.35;;;21.80;99.90;;;;;;5051767;28;20033;-40
2022/04/30 06:13:47;;;;;;;8.18;6.10;;;21.80;99.90;;;;;;5050414;28;20339;-40
2022/04/30 06:16:13;;;;;;;9.38;6.50;;;21.80;99.90;;;;;;5051489;28;20103;-40
2022/04/30 06:18:39;;;;;;;9.90;5.65;;;21.80;99.90;;;;;;5051680;28;20024;-40
2022/04/30 06:21:04;;;;;;;8.32;6.03;;;21.80;99.90;;;;;;5051654;28;20025;-40
2022/04/30 06:23:30;;;;;;;6.90;6.03;;;21.80;99.90;;;;;;5051505;28;20104;-40
2022/04/30 06:25:56;;;;;;;7.72;5.80;;;21.80;99.90;;;;;;5050413;28;20021;-40
2022/04/30 06:28:22;;;;;;;7.35;5.85;;;21.80;99.90;;;;;;5051423;28;20112;-40
2022/04/30 06:30:48;;;;;;;7.43;5.88;;;21.80;99.90;;;;;;5050033;28;20179;-40
2022/04/30 06:33:14;;;;;;;8.60;6.53;;;21.80;99.90;;;;;;5051366;28;20025;-40
2022/04/30 06:35:39;;;;;;;8.18;6.10;;;21.90;99.90;;;;;;5051239;28;20035;-41
2022/04/30 06:38:06;;;;;;;8.65;6.40;;;21.90;99.90;;;;;;5051312;28;20423;-40
2022/04/30 06:40:32;;;;;;;9.00;6.57;;;21.90;99.90;;;;;;5050126;28;20090;-44
2022/04/30 06:42:59;;;;;;;7.10;5.85;;;21.90;99.90;;;;;;5051293;28;20480;-40
2022/04/30 06:45:25;;;;;;;7.83;5.80;;;21.90;99.90;;;;;;5051180;28;20472;-41
2022/04/30 06:48:10;;;;;;;7.78;5.90;;;21.90;99.90;;;;;;5051193;28;20033;-40
2022/04/30 06:50:36;;;;;;;6.50;5.60;;;22.00;99.90;;;;;;5050952;28;20504;-40
2022/04/30 06:58:40;;;;;;;9.90;6.43;;;22.00;99.90;;;;;;5051102;28;20031;-40
2022/04/30 07:04:01;;;;;;;8.90;6.05;;;22.00;99.90;;;;;;5051092;28;20448;-40
2022/04/30 07:06:29;;;;;;;8.05;6.10;;;22.10;99.90;;;;;;5051221;28;20036;-41
2022/04/30 07:08:55;;;;;;;;;;;22.10;99.90;;;;;;5051373;28;20025;-41
2022/04/30 07:11:21;;;;;;;7.60;5.70;;;22.10;99.90;;;;;;5050886;28;19932;-41
2022/04/30 07:13:47;;;;;;;6.95;5.53;;;22.10;99.90;;;;;;5050987;28;20025;-41
2022/04/30 07:16:12;;;;;;;7.82;6.07;;;22.10;99.90;;;;;;5050974;28;20044;-46
2022/04/30 07:18:38;;;;;;;8.45;5.57;;;22.10;99.90;;;;;;5050932;28;20108;-41
2022/04/30 07:21:04;;;;;;;7.15;5.72;;;22.20;99.90;;;;;;5050714;28;20578;-40
2022/04/30 07:23:31;;;;;;;6.85;5.22;;;22.20;99.90;;;;;;5051759;28;20021;-39
2022/04/30 07:25:57;;;;;;;6.68;5.00;;;22.20;99.90;;;;;;5051524;28;20100;-42
2022/04/30 07:28:23;;;;;;;6.80;5.40;;;22.20;99.90;;;;;;5049816;28;20075;-41
2022/04/30 07:30:50;;;;;;;7.75;5.28;;;22.20;99.90;;;;;;5050808;28;20036;-42
2022/04/30 07:33:16;;;;;;;8.88;6.03;;;22.20;99.90;;;;;;5050804;28;20098;-40
2022/04/30 07:35:42;;;;;;;9.18;5.90;;;22.20;99.90;;;;;;5050807;28;20056;-41
2022/04/30 07:38:08;;;;;;;8.38;5.20;;;22.20;99.90;;;;;;5050906;28;20104;-47
2022/04/30 07:40:38;;;;;;;7.55;6.20;;;22.20;99.90;;;;;;5050769;28;20025;-41
2022/04/30 07:43:04;;;;;;;8.00;5.82;;;22.20;99.90;;;;;;5050653;28;20594;-40
2022/04/30 07:45:30;;;;;;;10.02;5.75;;;22.30;99.90;;;;;;5050943;28;20412;-41
2022/04/30 07:47:56;;;;;;;6.93;5.45;;;22.30;99.90;;;;;;5050620;28;20128;-41
2022/04/30 07:53:26;;;;;;;7.88;6.38;;;22.30;99.90;;;;;;5050924;28;20044;-41
2022/04/30 07:55:53;;;;;;;7.82;5.50;;;22.30;99.90;;;;;;5050493;28;20049;-41
2022/04/30 07:58:37;;;;;;;7.78;5.80;;;22.30;99.90;;;;;;5052106;28;20114;-41
2022/04/30 08:01:22;;;;;;;8.68;6.22;;;22.30;99.90;;;;;;5054081;28;20432;-45
2022/04/30 08:04:06;;;;;;;10.05;6.03;;;22.30;99.90;;;;;;5054234;28;20550;-41
2022/04/30 08:06:32;;;;;;;7.18;5.65;;;22.30;99.90;;;;;;5054379;28;20108;-41
2022/04/30 08:08:58;;;;;;;8.18;5.78;;;22.30;99.90;;;;;;5054005;28;20105;-40
2022/04/30 08:11:24;;;;;;;7.82;6.00;;;22.30;99.90;;;;;;5053951;28;20542;-40
2022/04/30 08:13:50;;;;;;;8.25;6.05;;;22.40;99.90;;;;;;5053871;28;20033;-41
2022/04/30 08:16:16;;;;;;;6.65;5.20;;;22.40;99.90;;;;;;5053804;28;20473;-41
2022/04/30 08:18:42;;;;;;;7.20;5.55;;;22.40;99.90;;;;;;5053819;28;20385;-40
2022/04/30 08:21:08;;;;;;;8.23;5.45;;;22.40;99.90;;;;;;5052648;28;20417;-40
2022/04/30 08:23:34;;;;;;;5.80;4.90;;;22.40;99.90;;;;;;5052548;28;20090;-41
2022/04/30 08:26:01;;;;;;;7.47;5.22;;;22.40;99.90;;;;;;5054017;28;20468;-41
2022/04/30 08:28:28;;;;;;;7.03;5.43;;;22.50;99.90;;;;;;5053698;28;20104;-40
2022/04/30 08:30:54;;;;;;;6.50;5.65;;;22.50;99.90;;;;;;5053405;28;20041;-40
2022/04/30 08:33:19;;;;;;;7.15;5.00;;;22.50;99.90;;;;;;5053621;28;20027;-41
2022/04/30 08:35:45;;;;;;;7.88;5.15;;;22.50;99.90;;;;;;5053545;28;20071;-41
2022/04/30 08:38:11;;;;;;;6.75;5.38;;;22.50;99.90;;;;;;5053264;28;20107;-40
2022/04/30 08:40:41;;;;;;;6.68;5.53;;;22.50;99.90;;;;;;5053414;28;20025;-41
2022/04/30 08:43:08;;;;;;;8.10;5.07;;;22.50;99.90;;;;;;5053338;28;20029;-41
2022/04/30 08:45:37;;;;;;;7.40;5.45;;;22.60;99.90;;;;;;5053436;28;20024;-41
2022/04/30 08:48:07;;;;;;;6.90;5.18;;;22.60;99.90;;;;;;5053461;28;20041;-40
2022/04/30 08:50:33;;;;;;;8.52;5.38;;;22.60;99.90;;;;;;5053260;28;20031;-39
2022/04/30 08:52:59;;;;;;;6.00;5.10;;;22.60;99.90;;;;;;5053055;28;20111;-40
2022/04/30 08:55:24;;;;;;;6.07;5.03;;;22.70;99.90;;;;;;5053264;28;20533;-40
2022/04/30 08:57:51;;;;;;;6.03;4.65;;;22.70;99.90;;;;;;5053120;28;20024;-41
2022/04/30 09:00:17;;;;;;;5.68;4.35;;;22.70;99.90;;;;;;5053014;28;20055;-41
2022/04/30 09:02:55;;;;;;;6.20;4.70;;;22.70;99.90;;;;;;5052955;28;20098;-41
2022/04/30 09:05:22;;;;;;;7.22;5.20;;;22.70;99.90;;;;;;5052892;28;20079;-41
2022/04/30 09:07:55;;;;;;;6.03;4.70;;;22.80;99.90;;;;;;5052747;28;20025;-41
2022/04/30 09:10:29;;;;;;;5.07;4.00;;;22.80;99.90;;;;;;5052644;28;20503;-40
2022/04/30 09:13:07;;;;;;;6.65;5.10;;;22.80;99.90;;;;;;5052654;28;20021;-40
2022/04/30 09:15:34;;;;;;;6.15;4.82;;;22.80;99.90;;;;;;5051614;28;20480;-41
2022/04/30 09:18:01;;;;;;;5.78;4.05;;;22.90;99.90;;;;;;5052610;28;20575;-40
2022/04/30 09:20:27;;;;;;;7.97;5.10;;;22.90;99.90;;;;;;5052505;28;20024;-40
2022/04/30 09:22:53;;;;;;;7.50;5.40;;;22.90;99.90;;;;;;5052603;28;20100;-42
2022/04/30 09:25:19;;;;;;;7.30;4.85;;;22.90;99.90;;;;;;5052426;28;20033;-40
2022/04/30 09:27:50;;;;;;;7.53;5.05;;;23.00;99.90;;;;;;5052325;28;20036;-41
2022/04/30 09:30:24;;;;;;;7.75;4.97;;;22.90;99.90;;;;;;5052118;28;20032;-41
2022/04/30 09:33:02;;;;;;;6.22;5.53;;;23.00;99.90;;;;;;5052508;28;20035;-40
2022/04/30 09:38:13;;;;;;;7.43;5.05;;;23.00;99.90;;;;;;5052375;28;20106;-41
2022/04/30 09:40:39;;;;;;;8.02;5.25;;;23.10;99.90;;;;;;5052285;28;20060;-41
2022/04/30 09:43:15;;;;;;;7.95;5.43;;;23.10;99.90;;;;;;5052313;28;20033;-41
2022/04/30 09:45:41;;;;;;;10.90;5.53;;;23.10;99.90;;;;;;5051928;28;20499;-41
2022/04/30 09:53:56;;;;;;;6.32;4.93;;;23.20;99.90;;;;;;5052310;28;20078;-41
2022/04/30 09:56:45;;;;;;;9.48;5.47;;;23.20;99.90;;;;;;5051971;28;20542;-41
2022/04/30 09:59:13;;;;;;;6.05;4.88;;;23.30;99.90;;;;;;5051779;28;20066;-40
2022/04/30 10:04:26;;;;;;;7.72;5.22;;;23.30;99.90;;;;;;5051916;28;20036;-41
2022/04/30 10:06:53;;;;;;;5.45;4.43;;;23.30;99.90;;;;;;5051720;28;20029;-41
2022/04/30 10:09:28;;;;;;;6.38;4.25;;;23.30;99.90;;;;;;5051756;28;20445;-40
2022/04/30 10:12:03;;;;;;;11.00;5.82;;;23.40;99.90;;;;;;5051441;28;20098;-40
2022/04/30 10:14:50;;;;;;;7.03;4.50;;;23.40;99.90;;;;;;5051439;28;20025;-40
2022/04/30 10:17:20;;;;;;;7.07;5.07;;;23.40;99.90;;;;;;5051617;28;20055;-40
2022/04/30 10:20:17;;;;;;;6.88;4.22;;;23.40;99.90;;;;;;5051425;28;20025;-41
2022/04/30 10:22:53;;;;;;;;;;;23.40;99.90;;;;;;5051736;28;20025;-41
2022/04/30 10:25:42;;;;;;;7.90;4.55;;;23.50;99.90;;;;;;5048785;28;20020;-41
2022/04/30 10:28:19;;;;;;;8.63;5.45;;;23.50;99.90;;;;;;5041261;28;20029;-40
2022/04/30 10:31:06;;;;;;;7.20;4.88;;;23.50;99.90;;;;;;5041621;28;20033;-39
2022/04/30 10:33:33;;;;;;;8.38;4.95;;;23.50;99.90;;;;;;5049341;28;20032;-40
2022/04/30 10:36:07;;;;;;;7.55;5.78;;;23.50;99.90;;;;;;5049324;28;20108;-41
2022/04/30 10:38:34;;;;;;;8.40;4.90;;;23.60;99.90;;;;;;5049443;28;20025;-40
2022/04/30 10:41:02;;;;;;;7.97;4.85;;;23.60;99.90;;;;;;5050057;28;20111;-41
2022/04/30 10:43:35;;;;;;;9.90;5.07;;;23.60;99.90;;;;;;5049962;28;20021;-41
2022/04/30 10:46:02;;;;;;;8.98;4.75;;;23.60;99.90;;;;;;5050210;28;20222;-41
2022/04/30 10:48:32;;;;;;;7.53;4.47;;;23.60;99.90;;;;;;5050797;28;20526;-41
2022/04/30 10:51:08;;;;;;;8.93;5.22;;;23.70;99.90;;;;;;5050561;28;20041;-42
2022/04/30 10:53:45;;;;;;;8.65;5.43;;;23.70;99.90;;;;;;5049147;28;20481;-42
2022/04/30 10:56:12;;;;;;;12.18;5.20;;;23.70;99.90;;;;;;5049174;28;20044;-41
2022/04/30 10:58:41;;;;;;;10.18;4.90;;;23.70;99.90;;;;;;5049245;28;20026;-40
2022/04/30 11:01:15;;;;;;;9.25;4.97;;;23.70;99.90;;;;;;5043914;28;20045;-45
2022/04/30 11:03:43;;;;;;;13.57;5.75;;;23.70;99.90;;;;;;5030534;28;20063;-46
2022/04/30 11:06:18;;;;;;;9.40;5.07;;;23.70;99.90;;;;;;5033010;28;20021;-44
2022/04/30 11:08:44;;;;;;;10.90;5.13;;;23.70;99.90;;;;;;5043279;28;20017;-44
2022/04/30 11:11:09;;;;;;;11.63;5.20;;;23.70;99.90;;;;;;5031778;28;20044;-44
2022/04/30 11:13:35;;;;;;;7.82;4.38;;;23.60;99.90;;;;;;5048834;28;20071;-44
2022/04/30 11:16:01;;;;;;;7.68;5.30;;;23.60;99.90;;;;;;5050148;28;20033;-45
2022/04/30 11:18:27;;;;;;;13.65;5.82;;;23.60;99.90;;;;;;5048068;28;20048;-45
2022/04/30 11:21:00;;;;;;;9.77;5.80;;;23.60;99.90;;;;;;5038850;28;20083;-45
2022/04/30 11:23:26;;;;;;;7.25;5.03;;;23.60;99.90;;;;;;5046428;28;20026;-46
2022/04/30 11:25:52;;;;;;;13.55;5.32;;;23.60;99.90;;;;;;5043492;28;20106;-46
2022/04/30 11:28:18;;;;;;;10.57;4.85;;;23.60;99.90;;;;;;5043893;28;20477;-46
2022/04/30 11:30:45;;;;;;;8.95;4.88;;;23.60;99.90;;;;;;5049715;28;20025;-44
2022/04/30 11:33:12;;;;;;;13.63;5.32;;;23.60;99.90;;;;;;5040619;28;20489;-45
2022/04/30 11:35:38;;;;;;;15.82;4.60;;;23.60;99.90;;;;;;5050905;28;20064;-45
2022/04/30 11:38:10;;;;;;;7.20;5.20;;;23.60;99.90;;;;;;5053099;28;20488;-45
2022/04/30 11:40:40;;;;;;;14.70;5.75;;;23.60;99.90;;;;;;5054618;28;20108;-45
2022/04/30 11:43:05;;;;;;;11.75;4.75;;;23.70;99.90;;;;;;5054365;28;20029;-45
2022/04/30 11:45:32;;;;;;;11.15;4.40;;;23.60;99.90;;;;;;5054296;28;20029;-45
2022/04/30 11:47:59;;;;;;;10.80;5.63;;;23.70;99.90;;;;;;5054192;28;20112;-45
2022/04/30 11:50:29;;;;;;;13.27;6.75;;;23.70;99.90;;;;;;5054092;28;20037;-45
2022/04/30 11:52:55;;;;;;;9.23;5.18;;;23.60;99.90;;;;;;5053078;28;20481;-45
2022/04/30 11:55:21;;;;;;;13.02;6.30;;;23.70;99.90;;;;;;5054396;28;20049;-46
2022/04/30 11:57:48;;;;;;;11.85;6.85;;;23.70;99.90;;;;;;5054256;28;20372;-45
2022/04/30 12:00:15;;;;;;;14.30;6.45;;;23.70;99.90;;;;;;5054146;28;20508;-45
2022/04/30 12:02:44;;;;;;;;;;;23.70;99.90;;;;;;5054685;28;20033;-45
2022/04/30 12:05:10;;;;;;;14.70;6.00;;;23.70;99.90;;;;;;5054065;28;19904;-45
2022/04/30 12:07:46;;;;;;;15.98;6.80;;;23.70;99.90;;;;;;5053139;28;20029;-46
2022/04/30 12:10:26;;;;;;;13.77;6.65;;;23.70;99.90;;;;;;5053259;28;20021;-46
2022/04/30 12:12:52;;;;;;;12.23;6.60;;;23.70;99.90;;;;;;5053231;28;20104;-45
2022/04/30 12:15:24;;;;;;;13.43;6.97;;;23.70;99.90;;;;;;5051653;28;20031;-46
2022/04/30 12:26:55;;;;;;;14.93;6.82;;;23.70;99.90;;;;;;5034435;28;20143;-46
2022/04/30 12:29:22;;;;;;;;;;;23.80;99.90;;;;;;5041182;28;20032;-51
2022/04/30 12:31:52;;;;;;;54.80;39.30;;;23.80;99.90;;;;;;5036661;28;19960;-52
2022/04/30 12:34:22;;;;;;;115.18;66.68;;;23.80;99.90;;;;;;5033659;28;20435;-51
2022/04/30 12:36:52;;;;;;;125.78;55.15;;;23.80;99.90;;;;;;5039988;28;20556;-52
2022/04/30 12:39:37;;;;;;;103.53;44.58;;;23.80;99.90;;;;;;5046030;28;20032;-51
2022/04/30 12:42:04;;;;;;;91.72;36.53;;;23.80;99.90;;;;;;5049361;28;20036;-51
2022/04/30 12:44:30;;;;;;;65.40;24.77;;;23.80;99.90;;;;;;5043919;28;20438;-52
2022/04/30 12:46:56;;;;;;;46.42;18.55;;;23.80;99.90;;;;;;5045598;28;20021;-52
2022/04/30 12:49:22;;;;;;;32.45;12.07;;;23.80;99.90;;;;;;5046215;28;20021;-51
2022/04/30 12:51:49;;;;;;;30.23;9.95;;;23.80;99.90;;;;;;5047069;28;20397;-52
2022/04/30 12:54:16;;;;;;;23.23;8.87;;;23.80;99.90;;;;;;5052040;28;20096;-52
2022/04/30 12:56:44;;;;;;;22.90;8.15;;;23.80;99.90;;;;;;5052236;28;20266;-50
2022/04/30 12:59:10;;;;;;;29.33;8.23;;;23.80;99.90;;;;;;5042885;28;20489;-43
2022/04/30 13:01:37;;;;;;;28.73;8.77;;;23.80;99.90;;;;;;5032767;28;20053;-43
2022/04/30 13:04:03;;;;;;;29.02;7.53;;;23.80;99.90;;;;;;5043897;28;20029;-46
2022/04/30 13:06:30;;;;;;;26.17;8.27;;;23.80;99.90;;;;;;5052110;28;20028;-47
2022/04/30 13:14:28;;;;;;;28.17;10.30;;;23.90;99.90;;;;;;5043892;28;20024;-46
2022/04/30 13:16:53;;;;;;;23.98;9.32;;;23.90;99.90;;;;;;5048735;28;20021;-47
2022/04/30 13:19:19;;;;;;;29.10;10.82;;;23.90;99.90;;;;;;5044097;28;20021;-46
2022/04/30 13:21:49;;;;;;;24.80;9.70;;;23.90;99.90;;;;;;5039306;28;20472;-47
2022/04/30 13:24:16;;;;;;;25.80;9.85;;;24.00;99.90;;;;;;5045353;28;20028;-46
2022/04/30 13:26:42;;;;;;;26.75;10.18;;;24.00;99.90;;;;;;5049401;28;20037;-47
2022/04/30 13:29:11;;;;;;;21.40;9.80;;;23.90;99.90;;;;;;5050780;28;20025;-47
2022/04/30 13:31:38;;;;;;;22.45;8.65;;;24.00;99.90;;;;;;5043915;28;20290;-48
2022/04/30 13:34:05;;;;;;;22.50;9.37;;;24.00;99.90;;;;;;5049031;28;20021;-48
2022/04/30 13:36:37;;;;;;;22.40;9.32;;;24.00;99.90;;;;;;5048911;28;20152;-49
2022/04/30 13:39:04;;;;;;;20.83;9.45;;;24.10;99.90;;;;;;5051680;28;20028;-46
2022/04/30 13:41:30;;;;;;;23.65;10.07;;;24.10;99.90;;;;;;5041456;28;20115;-45
2022/04/30 13:43:56;;;;;;;27.02;10.80;;;24.10;99.90;;;;;;5043446;28;20578;-46
2022/04/30 13:46:22;;;;;;;31.27;10.90;;;24.10;99.90;;;;;;5042905;28;20017;-45
2022/04/30 13:48:49;;;;;;;22.25;10.77;;;24.10;99.90;;;;;;5043444;28;20041;-45
2022/04/30 13:51:15;;;;;;;31.52;12.07;;;24.10;99.90;;;;;;5051274;28;20041;-46
2022/04/30 13:53:41;;;;;;;24.15;10.68;;;24.10;99.90;;;;;;5051735;28;20025;-46
2022/04/30 13:56:07;;;;;;;25.60;10.77;;;24.10;99.90;;;;;;5042112;28;20358;-45